Time;durP1;ratioP1;P1;durP2;ratioP2;P2;SDS_P1;SDS_P2;PMS_P1;PMS_P2;Temp;Humidity;BMP_temperature;BMP_pressure;BME280_temperature;BME280_humidity;BME280_pressure;Samples;Min_cycle;Max_cycle;Signal;HPM_P1;HPM_P2
2022/10/21 00:01:06;;;;;;;17.50;13.52;;;9.90;99.90;;;;;;5075110;28;20020;-63
2022/10/21 00:03:32;;;;;;;16.73;13.27;;;9.90;99.90;;;;;;5074945;28;20028;-63
2022/10/21 00:05:58;;;;;;;14.35;11.80;;;9.90;99.90;;;;;;5075207;28;20051;-62
2022/10/21 00:08:24;;;;;;;12.30;10.77;;;9.90;99.90;;;;;;5073507;28;20451;-63
2022/10/21 00:10:51;;;;;;;12.57;10.07;;;9.90;99.90;;;;;;5074704;28;20032;-63
2022/10/21 00:13:17;;;;;;;12.60;10.32;;;9.90;99.90;;;;;;5074832;28;20091;-63
2022/10/21 00:15:42;;;;;;;15.05;11.80;;;9.90;99.90;;;;;;5075022;28;20434;-63
2022/10/21 00:18:08;;;;;;;16.67;13.30;;;9.90;99.90;;;;;;5074570;28;20387;-63
2022/10/21 00:20:33;;;;;;;17.05;12.25;;;9.80;99.90;;;;;;5074990;28;20490;-63
2022/10/21 00:22:59;;;;;;;15.48;12.65;;;9.80;99.90;;;;;;5074457;28;20021;-63
2022/10/21 00:25:25;;;;;;;13.30;10.63;;;9.70;99.90;;;;;;5074591;28;20459;-63
2022/10/21 00:27:50;;;;;;;12.93;10.05;;;9.60;99.90;;;;;;5074208;28;20027;-63
2022/10/21 00:30:17;;;;;;;15.27;11.77;;;9.60;99.90;;;;;;5074552;28;20387;-64
2022/10/21 00:32:43;;;;;;;11.65;10.38;;;9.60;99.90;;;;;;5074483;28;20052;-63
2022/10/21 00:35:08;;;;;;;11.80;9.57;;;9.60;99.90;;;;;;5074308;28;20120;-63
2022/10/21 00:37:34;;;;;;;10.45;8.70;;;9.60;99.90;;;;;;5074032;28;20024;-63
2022/10/21 00:40:00;;;;;;;14.40;10.43;;;9.70;99.90;;;;;;5074369;28;20024;-63
2022/10/21 00:42:36;;;;;;;12.93;9.30;;;9.70;99.90;;;;;;5074178;28;20099;-63
2022/10/21 00:45:05;;;;;;;9.48;8.38;;;9.60;99.90;;;;;;5074309;28;20024;-63
2022/10/21 00:47:45;;;;;;;11.32;8.57;;;9.60;99.90;;;;;;5074223;28;20027;-63
2022/10/21 00:50:33;;;;;;;13.05;9.05;;;9.60;99.90;;;;;;5074258;28;20031;-63
2022/10/21 00:53:00;;;;;;;10.40;8.18;;;9.60;99.90;;;;;;5067022;28;20432;-63
2022/10/21 00:55:31;;;;;;;8.70;7.53;;;9.60;99.90;;;;;;5074243;28;20012;-63
2022/10/21 00:57:58;;;;;;;10.80;8.43;;;9.60;99.90;;;;;;5074062;28;20023;-63
2022/10/21 01:00:23;;;;;;;8.32;7.00;;;9.60;99.90;;;;;;5073818;28;20060;-63
2022/10/21 01:02:49;;;;;;;7.43;6.70;;;9.50;99.90;;;;;;5073832;28;20078;-63
2022/10/21 01:05:16;;;;;;;9.10;6.88;;;9.50;99.90;;;;;;5073836;28;20024;-63
2022/10/21 01:07:44;;;;;;;11.48;7.70;;;9.40;99.90;;;;;;5073519;28;20025;-63
2022/10/21 01:10:10;;;;;;;9.05;7.32;;;9.40;99.90;;;;;;5073796;28;20017;-63
2022/10/21 01:12:42;;;;;;;12.48;9.95;;;9.40;99.90;;;;;;5074049;28;20035;-63
2022/10/21 01:15:25;;;;;;;8.57;6.63;;;9.30;99.90;;;;;;5073614;28;20028;-63
2022/10/21 01:18:06;;;;;;;10.40;7.83;;;9.10;99.90;;;;;;5073709;28;20075;-63
2022/10/21 01:20:49;;;;;;;11.10;8.70;;;9.20;99.90;;;;;;5073420;28;20020;-63
2022/10/21 01:23:33;;;;;;;7.88;6.55;;;9.10;99.90;;;;;;5073625;28;20463;-63
2022/10/21 01:26:23;;;;;;;7.18;6.47;;;9.00;99.90;;;;;;5073644;28;20032;-63
2022/10/21 01:29:13;;;;;;;8.75;7.43;;;9.00;99.90;;;;;;5072518;28;20060;-63
2022/10/21 01:31:43;;;;;;;7.57;6.72;;;9.00;99.90;;;;;;5073474;28;20029;-63
2022/10/21 01:34:23;;;;;;;9.25;6.70;;;9.10;99.90;;;;;;5073393;28;20025;-63
2022/10/21 01:36:57;;;;;;;8.35;6.55;;;9.10;99.90;;;;;;5073223;28;20094;-63
2022/10/21 01:39:42;;;;;;;9.65;7.47;;;9.10;99.90;;;;;;5073301;28;20021;-63
2022/10/21 01:42:15;;;;;;;10.23;7.00;;;9.00;99.90;;;;;;5073413;28;20024;-63
2022/10/21 01:44:41;;;;;;;8.32;6.88;;;9.00;99.90;;;;;;5073272;28;20359;-63
2022/10/21 01:47:21;;;;;;;6.18;5.53;;;9.00;99.90;;;;;;5073280;28;20036;-63
2022/10/21 01:49:54;;;;;;;8.38;6.47;;;8.90;99.90;;;;;;5072975;28;20013;-63
2022/10/21 01:52:20;;;;;;;7.93;6.82;;;8.90;99.90;;;;;;5073335;28;20119;-63
2022/10/21 01:54:57;;;;;;;8.38;6.85;;;8.80;99.90;;;;;;5073313;28;20509;-63
2022/10/21 01:57:27;;;;;;;8.73;7.22;;;8.80;99.90;;;;;;5073312;28;20044;-63
2022/10/21 01:59:55;;;;;;;7.57;6.13;;;8.80;99.90;;;;;;5073281;28;20382;-63
2022/10/21 02:02:26;;;;;;;8.05;6.68;;;8.70;99.90;;;;;;5073043;28;20027;-63
2022/10/21 02:04:54;;;;;;;6.90;5.70;;;8.70;99.90;;;;;;5073053;28;20020;-63
2022/10/21 02:07:19;;;;;;;8.80;6.70;;;8.80;99.90;;;;;;5073086;28;20017;-63
2022/10/21 02:09:45;;;;;;;7.35;6.20;;;8.70;99.90;;;;;;5073051;28;20467;-63
2022/10/21 02:12:11;;;;;;;12.63;7.72;;;8.70;99.90;;;;;;5072932;28;20467;-63
2022/10/21 02:14:42;;;;;;;9.02;7.57;;;8.60;99.90;;;;;;5073382;28;20021;-63
2022/10/21 02:17:15;;;;;;;9.90;7.57;;;8.50;99.90;;;;;;5072944;28;20021;-63
2022/10/21 02:19:41;;;;;;;9.68;8.07;;;8.50;99.90;;;;;;5072801;28;20036;-63
2022/10/21 02:22:09;;;;;;;10.35;7.35;;;8.50;99.90;;;;;;5073038;28;20029;-63
2022/10/21 02:24:44;;;;;;;7.40;6.10;;;8.50;99.90;;;;;;5072853;28;20459;-63
2022/10/21 02:27:10;;;;;;;6.75;5.50;;;8.40;99.90;;;;;;5072958;28;20104;-63
2022/10/21 02:29:38;;;;;;;7.80;5.70;;;8.40;99.90;;;;;;5072750;28;20127;-63
2022/10/21 02:32:15;;;;;;;5.75;4.95;;;8.50;99.90;;;;;;5072696;28;20025;-63
2022/10/21 02:35:10;;;;;;;7.43;6.25;;;8.50;99.90;;;;;;5072736;28;20032;-63
2022/10/21 02:38:00;;;;;;;11.45;8.85;;;8.50;99.90;;;;;;5071541;28;20493;-63
2022/10/21 02:40:59;;;;;;;9.70;7.20;;;8.40;99.90;;;;;;5074683;28;20025;-63
2022/10/21 02:43:55;;;;;;;8.18;6.35;;;8.40;99.90;;;;;;5076485;28;20027;-63
2022/10/21 02:46:21;;;;;;;9.30;6.70;;;8.40;99.90;;;;;;5074227;28;20060;-63
2022/10/21 02:48:47;;;;;;;7.85;6.05;;;8.40;99.90;;;;;;5076105;28;20430;-63
2022/10/21 02:51:13;;;;;;;9.20;6.30;;;8.40;99.90;;;;;;5076391;28;20028;-63
2022/10/21 02:53:39;;;;;;;9.52;6.85;;;8.30;99.90;;;;;;5076465;28;20049;-63
2022/10/21 02:56:06;;;;;;;12.65;9.13;;;8.30;99.90;;;;;;5076234;28;20020;-63
2022/10/21 02:58:32;;;;;;;8.98;6.50;;;8.30;99.90;;;;;;5076276;28;20021;-63
2022/10/21 03:00:58;;;;;;;10.02;7.30;;;8.20;99.90;;;;;;5076338;28;20436;-63
2022/10/21 03:03:24;;;;;;;9.57;7.03;;;8.20;99.90;;;;;;5076181;28;20417;-63
2022/10/21 03:05:49;;;;;;;8.68;7.10;;;8.30;99.90;;;;;;5075136;28;20036;-63
2022/10/21 03:08:15;;;;;;;16.50;12.30;;;8.30;99.90;;;;;;5076065;28;20021;-63
2022/10/21 03:10:41;;;;;;;12.73;10.35;;;8.20;99.90;;;;;;5076062;28;20032;-63
2022/10/21 03:13:07;;;;;;;11.98;9.50;;;8.10;99.90;;;;;;5075962;28;20024;-63
2022/10/21 03:15:32;;;;;;;23.45;16.90;;;8.10;99.90;;;;;;5076085;28;20020;-63
2022/10/21 03:17:58;;;;;;;49.20;32.88;;;8.10;99.90;;;;;;5075667;28;20024;-63
2022/10/21 03:20:24;;;;;;;28.58;21.10;;;8.00;99.90;;;;;;5075813;28;20082;-63
2022/10/21 03:22:49;;;;;;;28.55;20.08;;;8.00;99.90;;;;;;5075845;28;20505;-63
2022/10/21 03:25:15;;;;;;;21.65;16.13;;;8.00;99.90;;;;;;5075815;28;20016;-63
2022/10/21 03:27:41;;;;;;;20.92;15.05;;;7.90;99.90;;;;;;5075450;28;20020;-63
2022/10/21 03:30:07;;;;;;;18.17;12.82;;;7.90;99.90;;;;;;5075879;28;20523;-63
2022/10/21 03:32:33;;;;;;;15.00;12.27;;;8.00;99.90;;;;;;5075394;28;20498;-65
2022/10/21 03:34:59;;;;;;;15.13;11.23;;;8.00;99.90;;;;;;5075544;28;20048;-63
2022/10/21 03:37:25;;;;;;;12.10;9.68;;;8.00;99.90;;;;;;5075701;28;20363;-63
2022/10/21 03:39:51;;;;;;;13.02;8.48;;;7.90;99.90;;;;;;5075772;28;20428;-63
2022/10/21 03:42:16;;;;;;;10.45;8.50;;;7.90;99.90;;;;;;5075554;28;20025;-63
2022/10/21 03:44:42;;;;;;;11.38;8.18;;;7.90;99.90;;;;;;5075265;28;20052;-63
2022/10/21 03:47:07;;;;;;;12.00;9.45;;;7.90;99.90;;;;;;5075437;28;20024;-63
2022/10/21 03:49:33;;;;;;;10.18;8.00;;;7.90;99.90;;;;;;5075323;28;20020;-63
2022/10/21 03:51:59;;;;;;;9.18;7.35;;;7.90;99.90;;;;;;5074290;28;20028;-63
2022/10/21 03:54:25;;;;;;;12.40;9.27;;;7.90;99.90;;;;;;5075242;28;20043;-63
2022/10/21 03:56:50;;;;;;;12.60;8.35;;;7.90;99.90;;;;;;5075240;28;20391;-63
2022/10/21 03:59:16;;;;;;;8.65;7.25;;;7.80;99.90;;;;;;5075038;28;20047;-63
2022/10/21 04:01:42;;;;;;;8.27;7.30;;;7.70;99.90;;;;;;5074976;28;20024;-63
2022/10/21 04:04:07;;;;;;;10.10;7.30;;;7.80;99.90;;;;;;5075073;28;20021;-63
2022/10/21 04:06:33;;;;;;;7.90;6.90;;;7.80;99.90;;;;;;5074883;28;20020;-63
2022/10/21 04:08:59;;;;;;;8.90;7.53;;;7.70;99.90;;;;;;5074958;28;20028;-63
2022/10/21 04:11:25;;;;;;;7.75;6.63;;;7.70;99.90;;;;;;5075159;28;20111;-63
2022/10/21 04:13:50;;;;;;;7.80;6.45;;;7.70;99.90;;;;;;5074877;28;20048;-63
2022/10/21 04:16:19;;;;;;;8.77;6.80;;;7.70;99.90;;;;;;5074584;28;20066;-63
2022/10/21 04:18:44;;;;;;;8.98;7.05;;;7.70;99.90;;;;;;5074781;28;20441;-63
2022/10/21 04:21:11;;;;;;;9.75;7.25;;;7.70;99.90;;;;;;5074761;28;20056;-63
2022/10/21 04:23:37;;;;;;;7.25;5.82;;;7.60;99.90;;;;;;5074574;28;20016;-63
2022/10/21 04:26:03;;;;;;;7.95;6.20;;;7.60;99.90;;;;;;5074644;28;20021;-63
2022/10/21 04:28:29;;;;;;;7.15;5.93;;;7.60;99.90;;;;;;5074422;28;20135;-63
2022/10/21 04:30:55;;;;;;;8.38;6.05;;;7.50;99.90;;;;;;5074152;28;20100;-63
2022/10/21 04:33:21;;;;;;;8.18;5.68;;;7.60;99.90;;;;;;5074562;28;20021;-63
2022/10/21 04:35:46;;;;;;;7.43;5.72;;;7.60;99.90;;;;;;5074379;28;20032;-63
2022/10/21 04:38:12;;;;;;;6.40;5.00;;;7.50;99.90;;;;;;5074307;28;20017;-63
2022/10/21 04:40:38;;;;;;;7.75;5.90;;;7.50;99.90;;;;;;5074322;28;20390;-63
2022/10/21 04:43:04;;;;;;;5.40;4.82;;;7.60;99.90;;;;;;5074590;28;20052;-63
2022/10/21 04:45:30;;;;;;;6.95;5.43;;;7.50;99.90;;;;;;5074015;28;20097;-63
2022/10/21 04:47:55;;;;;;;5.60;4.80;;;7.50;99.90;;;;;;5074295;28;20021;-63
2022/10/21 04:50:21;;;;;;;10.25;5.90;;;7.50;99.90;;;;;;5073988;28;20078;-63
2022/10/21 04:52:47;;;;;;;9.00;6.85;;;7.50;99.90;;;;;;5074101;28;20028;-62
2022/10/21 04:55:12;;;;;;;9.25;7.30;;;7.50;99.90;;;;;;5073901;28;20020;-63
2022/10/21 04:57:39;;;;;;;8.73;6.70;;;7.30;99.90;;;;;;5074040;28;20024;-63
2022/10/21 05:00:06;;;;;;;8.77;6.80;;;7.20;99.90;;;;;;5073582;28;20067;-63
2022/10/21 05:02:32;;;;;;;18.80;12.85;;;7.30;99.90;;;;;;5073802;28;20025;-63
2022/10/21 05:04:57;;;;;;;13.32;8.75;;;7.30;99.90;;;;;;5073935;28;20027;-63
2022/10/21 05:07:23;;;;;;;16.25;9.95;;;7.40;99.90;;;;;;5073781;28;20027;-63
2022/10/21 05:09:49;;;;;;;12.75;8.77;;;7.40;99.90;;;;;;5073887;28;20024;-63
2022/10/21 05:12:14;;;;;;;13.02;8.80;;;7.40;99.90;;;;;;5073581;28;20021;-63
2022/10/21 05:14:40;;;;;;;11.30;8.50;;;7.40;99.90;;;;;;5073734;28;20104;-63
2022/10/21 05:17:06;;;;;;;12.00;9.45;;;7.50;99.90;;;;;;5073539;28;20107;-63
2022/10/21 05:19:31;;;;;;;29.23;18.58;;;7.60;99.90;;;;;;5073545;28;20051;-63
2022/10/21 05:21:57;;;;;;;53.90;34.35;;;7.60;99.90;;;;;;5073894;28;20048;-63
2022/10/21 05:24:23;;;;;;;36.75;24.25;;;7.60;99.90;;;;;;5073499;28;20480;-63
2022/10/21 05:26:50;;;;;;;39.67;24.52;;;7.50;99.90;;;;;;5073807;28;20056;-63
2022/10/21 05:29:15;;;;;;;72.03;43.30;;;7.60;99.90;;;;;;5072984;28;20044;-63
2022/10/21 05:31:41;;;;;;;46.20;29.30;;;7.70;99.90;;;;;;5072381;28;20514;-63
2022/10/21 05:34:07;;;;;;;38.78;26.52;;;7.70;99.90;;;;;;5073247;28;20146;-64
2022/10/21 05:36:33;;;;;;;32.50;23.33;;;7.90;99.90;;;;;;5073387;28;20025;-63
2022/10/21 05:38:59;;;;;;;26.42;18.45;;;7.90;99.90;;;;;;5073352;28;20024;-63
2022/10/21 05:41:24;;;;;;;23.45;17.15;;;8.00;99.90;;;;;;5073516;28;20451;-63
2022/10/21 05:43:50;;;;;;;21.20;14.73;;;8.00;99.90;;;;;;5073042;28;20129;-62
2022/10/21 05:46:15;;;;;;;18.00;12.57;;;8.10;99.90;;;;;;5073246;28;20021;-63
2022/10/21 05:48:41;;;;;;;17.55;11.63;;;8.20;99.90;;;;;;5070427;28;20074;-63
2022/10/21 05:51:07;;;;;;;14.07;11.00;;;8.20;99.90;;;;;;5061955;28;20025;-63
2022/10/21 05:53:33;;;;;;;14.30;10.20;;;8.30;99.90;;;;;;5066057;28;20597;-63
2022/10/21 05:56:06;;;;;;;11.60;8.52;;;8.40;99.90;;;;;;5063178;28;20031;-62
2022/10/21 05:58:33;;;;;;;11.07;8.23;;;8.50;99.90;;;;;;5071271;28;20414;-63
2022/10/21 06:01:00;;;;;;;10.35;7.63;;;8.60;99.90;;;;;;5071671;28;20487;-63
2022/10/21 06:03:31;;;;;;;8.10;7.20;;;8.60;99.90;;;;;;5072199;28;20025;-63
2022/10/21 06:06:02;;;;;;;8.98;7.28;;;8.80;99.90;;;;;;5071958;28;20035;-62
2022/10/21 06:08:29;;;;;;;8.45;6.25;;;8.90;99.90;;;;;;5073357;28;20028;-62
2022/10/21 06:11:10;;;;;;;7.18;5.97;;;9.00;99.90;;;;;;5072651;28;20122;-62
2022/10/21 06:13:36;;;;;;;8.57;6.38;;;9.10;99.90;;;;;;5072714;28;20025;-62
2022/10/21 06:16:03;;;;;;;10.43;8.25;;;9.20;99.90;;;;;;5062344;28;20056;-62
2022/10/21 06:18:29;;;;;;;24.13;17.08;;;9.20;99.90;;;;;;5067747;28;20507;-62
2022/10/21 06:20:55;;;;;;;20.63;14.20;;;9.10;99.90;;;;;;5068326;28;20063;-63
2022/10/21 06:23:21;;;;;;;22.90;14.77;;;9.10;99.90;;;;;;5077864;28;20112;-62
2022/10/21 06:26:01;;;;;;;25.30;16.67;;;9.20;99.90;;;;;;5066305;28;20352;-63
2022/10/21 06:28:28;;;;;;;20.65;16.13;;;9.30;99.90;;;;;;5065488;28;20119;-62
2022/10/21 06:30:54;;;;;;;22.98;16.45;;;9.30;99.90;;;;;;5064165;28;20372;-62
2022/10/21 06:33:20;;;;;;;20.05;15.77;;;9.30;99.90;;;;;;5064382;28;20679;-62
2022/10/21 06:35:46;;;;;;;19.13;13.68;;;9.30;99.90;;;;;;5063525;28;20060;-62
2022/10/21 06:38:12;;;;;;;16.40;12.25;;;9.40;99.90;;;;;;5070042;28;20028;-61
2022/10/21 06:40:37;;;;;;;18.23;12.07;;;9.50;99.90;;;;;;5073293;28;20467;-61
2022/10/21 06:43:03;;;;;;;19.73;13.93;;;9.70;99.90;;;;;;5073815;28;20427;-61
2022/10/21 06:45:29;;;;;;;17.40;12.68;;;9.80;99.90;;;;;;5072278;28;20394;-62
2022/10/21 06:47:54;;;;;;;17.13;12.20;;;10.10;99.90;;;;;;5066870;28;20134;-62
2022/10/21 06:50:20;;;;;;;14.25;11.20;;;12.20;99.90;;;;;;5070577;28;20029;-61
2022/10/21 06:52:49;;;;;;;11.07;9.52;;;14.70;77.20;;;;;;5062114;28;20033;-63
2022/10/21 06:55:15;;;;;;;10.88;9.25;;;16.40;64.50;;;;;;5073815;28;20020;-63
2022/10/21 06:57:41;;;;;;;15.18;11.80;;;17.60;59.30;;;;;;5069587;28;20415;-62
2022/10/21 07:00:08;;;;;;;27.65;21.05;;;18.30;54.00;;;;;;5068148;28;20029;-62
2022/10/21 07:02:33;;;;;;;27.77;21.80;;;18.50;52.60;;;;;;5063585;28;20133;-61
2022/10/21 07:04:59;;;;;;;38.20;28.65;;;19.10;52.00;;;;;;5065351;28;20495;-60
2022/10/21 07:07:25;;;;;;;37.47;28.85;;;19.70;50.90;;;;;;5072231;28;20020;-61
2022/10/21 07:09:51;;;;;;;29.35;24.67;;;20.10;49.00;;;;;;5073822;28;20482;-60
2022/10/21 07:12:17;;;;;;;25.85;21.60;;;19.40;50.20;;;;;;5064262;28;20391;-60
2022/10/21 07:14:42;;;;;;;18.92;16.92;;;18.90;51.10;;;;;;5053636;28;20387;-60
2022/10/21 07:17:08;;;;;;;13.80;12.32;;;18.70;51.40;;;;;;5055967;28;20097;-59
2022/10/21 07:19:35;;;;;;;10.98;9.88;;;18.50;51.50;;;;;;5072231;28;20116;-60
2022/10/21 07:22:01;;;;;;;18.85;13.38;;;18.60;52.20;;;;;;5066779;28;20021;-62
2022/10/21 07:24:26;;;;;;;16.15;14.35;;;19.60;52.10;;;;;;5069136;28;20028;-60
2022/10/21 07:26:52;;;;;;;32.42;26.00;;;20.70;49.40;;;;;;5064353;28;20021;-56
2022/10/21 07:29:18;;;;;;;25.33;20.17;;;21.70;47.10;;;;;;5052929;28;20061;-61
2022/10/21 07:31:44;;;;;;;20.73;17.55;;;22.20;46.20;;;;;;5052303;28;20040;-61
2022/10/21 07:34:11;;;;;;;17.10;14.82;;;22.40;45.50;;;;;;5052453;28;20486;-59
2022/10/21 07:36:40;;;;;;;14.68;13.18;;;22.40;44.40;;;;;;5072833;28;20026;-61
2022/10/21 07:39:12;;;;;;;14.25;12.75;;;22.50;44.80;;;;;;5069698;28;20021;-61
2022/10/21 07:41:44;;;;;;;13.65;12.23;;;22.70;44.40;;;;;;5053751;28;20024;-61
2022/10/21 07:44:10;;;;;;;15.00;13.25;;;22.90;44.30;;;;;;5058769;28;20025;-59
2022/10/21 07:46:40;;;;;;;14.93;12.48;;;22.90;44.40;;;;;;5068094;28;20070;-59
2022/10/21 07:49:07;;;;;;;13.20;11.90;;;22.90;44.10;;;;;;5071304;28;20141;-67
2022/10/21 07:51:33;;;;;;;12.05;10.77;;;23.10;44.80;;;;;;5064935;28;20051;-63
2022/10/21 07:54:00;;;;;;;10.43;9.30;;;23.30;43.60;;;;;;5071728;28;20443;-62
2022/10/21 07:59:47;;;;;;;10.90;9.70;;;24.20;42.00;;;;;;5070058;28;20369;-64
2022/10/21 08:02:13;;;;;;;8.75;7.85;;;24.60;41.20;;;;;;5071562;28;20115;-62
2022/10/21 08:04:39;;;;;;;8.80;8.00;;;24.60;41.70;;;;;;5072191;28;20021;-63
2022/10/21 08:07:05;;;;;;;8.35;7.53;;;24.60;41.80;;;;;;5071463;28;20455;-64
2022/10/21 08:09:31;;;;;;;7.88;7.07;;;25.30;42.00;;;;;;5063900;28;20024;-62
2022/10/21 08:11:57;;;;;;;8.52;7.72;;;26.00;41.20;;;;;;5065913;28;20099;-62
2022/10/21 08:14:23;;;;;;;8.90;8.00;;;26.70;39.80;;;;;;5052684;28;20021;-65
2022/10/21 08:16:56;;;;;;;9.02;7.80;;;27.00;40.50;;;;;;5068427;28;20033;-63
2022/10/21 08:19:28;;;;;;;8.60;7.70;;;27.00;38.70;;;;;;5062230;28;20086;-63
2022/10/21 08:21:55;;;;;;;8.90;8.10;;;25.80;40.30;;;;;;5064586;28;20037;-64
2022/10/21 08:24:22;;;;;;;8.27;7.47;;;24.20;40.60;;;;;;5073927;28;20023;-64
2022/10/21 08:26:48;;;;;;;8.63;7.65;;;22.80;42.80;;;;;;5066824;28;20039;-64
2022/10/21 08:29:14;;;;;;;12.73;11.43;;;21.70;44.50;;;;;;5067885;28;20051;-63
2022/10/21 08:31:40;;;;;;;9.70;8.80;;;21.00;45.80;;;;;;5062713;28;20394;-61
2022/10/21 08:34:05;;;;;;;10.68;9.65;;;20.40;47.70;;;;;;5060048;28;20090;-63
2022/10/21 08:36:32;;;;;;;11.43;10.18;;;20.10;48.40;;;;;;5062567;28;20474;-69
2022/10/21 08:38:58;;;;;;;16.15;12.60;;;19.70;49.00;;;;;;5050390;28;20111;-63
2022/10/21 08:41:30;;;;;;;16.67;13.52;;;19.40;51.60;;;;;;5051810;28;20107;-63
2022/10/21 08:44:01;;;;;;;24.42;18.25;;;18.90;52.00;;;;;;5051630;28;20021;-63
2022/10/21 08:46:45;;;;;;;16.77;15.07;;;18.50;51.90;;;;;;5050377;28;20021;-65
2022/10/21 08:49:33;;;;;;;18.80;16.02;;;18.20;52.50;;;;;;5050017;28;20036;-64
2022/10/21 08:52:11;;;;;;;18.40;15.98;;;18.30;52.60;;;;;;5058387;28;20456;-64
2022/10/21 08:55:00;;;;;;;15.75;14.07;;;18.40;52.70;;;;;;5069443;28;20016;-61
2022/10/21 08:57:26;;;;;;;16.55;14.40;;;18.40;53.90;;;;;;5069731;28;20070;-63
2022/10/21 08:59:54;;;;;;;17.98;15.90;;;18.30;53.80;;;;;;5069026;28;20017;-65
2022/10/21 09:02:34;;;;;;;17.65;15.85;;;18.30;54.40;;;;;;5066160;28;20115;-60
2022/10/21 09:05:12;;;;;;;15.93;14.27;;;18.30;55.50;;;;;;5066634;28;20382;-61
2022/10/21 09:07:37;;;;;;;14.32;12.77;;;18.20;56.10;;;;;;5068165;28;20020;-61
2022/10/21 09:10:21;;;;;;;13.73;12.32;;;18.30;55.80;;;;;;5068764;28;20027;-64
2022/10/21 09:13:19;;;;;;;14.93;13.32;;;18.30;55.60;;;;;;5070930;28;20036;-63
2022/10/21 09:16:07;;;;;;;12.65;10.82;;;18.30;57.10;;;;;;5069842;28;20017;-61
2022/10/21 09:18:35;;;;;;;10.25;9.15;;;18.40;58.30;;;;;;5070793;28;20017;-62
2022/10/21 09:21:13;;;;;;;10.65;8.98;;;18.60;55.20;;;;;;5069835;28;20550;-62
2022/10/21 09:23:57;;;;;;;7.93;7.13;;;18.90;54.10;;;;;;5070322;28;20032;-61
2022/10/21 09:26:25;;;;;;;;;;;19.50;53.20;;;;;;5072080;28;20024;-63
2022/10/21 09:28:51;;;;;;;6.25;5.65;;;20.00;52.70;;;;;;5069972;28;19928;-60
2022/10/21 09:31:19;;;;;;;5.38;4.97;;;20.30;47.10;;;;;;5072107;28;20407;-63
2022/10/21 09:34:12;;;;;;;5.20;4.70;;;20.60;48.50;;;;;;5066486;28;20024;-61
2022/10/21 09:36:46;;;;;;;4.55;4.10;;;21.10;47.50;;;;;;5072131;28;20016;-64
2022/10/21 09:39:35;;;;;;;4.35;3.95;;;21.50;46.20;;;;;;5062578;28;20487;-62
2022/10/21 09:42:00;;;;;;;2.70;2.50;;;21.90;42.10;;;;;;5065979;28;20029;-65
2022/10/21 09:44:27;;;;;;;3.25;2.72;;;22.20;41.00;;;;;;5070387;28;20029;-63
2022/10/21 09:46:54;;;;;;;3.15;2.85;;;22.40;40.00;;;;;;5067126;28;20032;-64
2022/10/21 09:49:31;;;;;;;2.50;2.30;;;22.60;41.80;;;;;;5060527;28;20074;-65
2022/10/21 09:52:03;;;;;;;3.60;3.30;;;23.10;41.10;;;;;;5060138;28;20040;-66
2022/10/21 09:54:34;;;;;;;3.50;3.05;;;23.40;39.30;;;;;;5058757;28;20064;-62
2022/10/21 09:57:00;;;;;;;3.85;3.55;;;23.60;41.40;;;;;;5066792;28;20023;-63
2022/10/21 09:59:25;;;;;;;4.38;3.97;;;23.80;41.10;;;;;;5067855;28;20028;-66
2022/10/21 10:01:52;;;;;;;4.55;4.15;;;23.90;42.00;;;;;;5065472;28;20051;-64
2022/10/21 10:04:30;;;;;;;4.57;4.18;;;24.20;40.30;;;;;;5052729;28;20021;-62
2022/10/21 10:06:57;;;;;;;4.13;3.67;;;24.40;41.20;;;;;;5068318;28;20027;-64
2022/10/21 10:09:31;;;;;;;3.65;3.35;;;24.60;40.40;;;;;;5061757;28;20021;-64
2022/10/21 10:12:12;;;;;;;3.85;3.50;;;24.70;39.80;;;;;;5068619;28;20037;-64
2022/10/21 10:14:42;;;;;;;3.35;3.05;;;24.80;39.70;;;;;;5062196;28;20044;-65
2022/10/21 10:17:23;;;;;;;3.78;3.00;;;24.80;42.80;;;;;;5070056;28;20025;-64
2022/10/21 10:20:04;;;;;;;3.75;2.55;;;24.80;38.40;;;;;;5071207;28;20033;-65
2022/10/21 10:22:42;;;;;;;4.45;4.05;;;24.80;40.50;;;;;;5061826;28;20143;-63
2022/10/21 10:25:13;;;;;;;3.97;3.67;;;24.90;41.80;;;;;;5062982;28;20025;-63
2022/10/21 10:28:08;;;;;;;3.70;3.40;;;24.90;39.40;;;;;;5066419;28;20043;-64
2022/10/21 10:30:55;;;;;;;5.18;4.50;;;25.00;40.00;;;;;;5062370;28;20064;-66
2022/10/21 10:33:25;;;;;;;4.03;3.72;;;25.30;39.90;;;;;;5057779;28;20021;-62
2022/10/21 10:35:54;;;;;;;4.57;4.18;;;25.40;41.00;;;;;;5050580;28;20121;-61
2022/10/21 10:38:29;;;;;;;4.68;4.15;;;25.40;41.00;;;;;;5061660;28;20041;-63
2022/10/21 10:41:09;;;;;;;4.90;4.45;;;25.50;44.50;;;;;;5049737;28;20029;-63
2022/10/21 10:43:48;;;;;;;4.90;4.50;;;25.80;43.60;;;;;;5048213;28;20024;-64
2022/10/21 10:46:33;;;;;;;4.70;4.30;;;25.80;41.60;;;;;;5050643;28;20459;-64
2022/10/21 10:49:22;;;;;;;5.13;4.63;;;25.80;40.40;;;;;;5049842;28;20120;-66
2022/10/21 10:52:05;;;;;;;4.45;4.05;;;25.80;40.10;;;;;;5050914;28;20036;-63
2022/10/21 10:54:32;;;;;;;3.88;3.53;;;25.90;39.60;;;;;;5051022;28;20017;-63
2022/10/21 10:57:22;;;;;;;4.80;4.40;;;26.00;42.90;;;;;;5050846;28;20060;-64
2022/10/21 10:59:48;;;;;;;4.78;3.95;;;26.00;38.60;;;;;;5050899;28;20025;-63
2022/10/21 11:02:26;;;;;;;4.50;4.10;;;25.90;39.90;;;;;;5058120;28;20103;-62
2022/10/21 11:05:00;;;;;;;4.50;4.20;;;25.80;40.30;;;;;;5072666;28;20021;-59
2022/10/21 11:07:48;;;;;;;5.03;4.63;;;25.60;41.80;;;;;;5072548;28;20027;-62
2022/10/21 11:10:35;;;;;;;5.07;4.55;;;25.60;42.50;;;;;;5064566;28;20118;-61
2022/10/21 11:16:41;;;;;;;6.20;5.60;;;25.90;41.80;;;;;;5069221;28;20028;-63
2022/10/21 11:19:22;;;;;;;5.97;5.47;;;26.00;43.40;;;;;;5064210;28;20534;-61
2022/10/21 11:21:52;;;;;;;5.68;4.95;;;26.10;42.90;;;;;;5062969;28;20025;-64
2022/10/21 11:24:58;;;;;;;5.63;5.13;;;26.20;43.30;;;;;;5061999;28;20491;-62
2022/10/21 11:27:32;;;;;;;6.50;5.90;;;26.40;44.70;;;;;;5071897;28;20017;-63
2022/10/21 11:30:18;;;;;;;5.28;4.82;;;26.50;44.80;;;;;;5066335;28;20048;-61
2022/10/21 11:33:19;;;;;;;5.18;4.68;;;26.70;43.00;;;;;;5063388;28;20044;-61
2022/10/21 11:35:51;;;;;;;5.60;5.07;;;26.70;42.30;;;;;;5037608;28;20041;-63
2022/10/21 11:38:19;;;;;;;5.30;4.90;;;26.70;42.90;;;;;;5071593;28;20043;-63
2022/10/21 11:40:48;;;;;;;5.43;4.93;;;26.60;42.70;;;;;;5072239;28;20104;-66
2022/10/21 11:43:26;;;;;;;5.68;4.90;;;26.40;42.00;;;;;;5072020;28;20536;-63
2022/10/21 11:46:11;;;;;;;5.38;4.90;;;26.40;42.70;;;;;;5069994;28;20082;-62
2022/10/21 11:48:51;;;;;;;5.18;4.68;;;26.40;43.10;;;;;;5066826;28;20059;-63
2022/10/21 11:51:23;;;;;;;5.63;5.07;;;26.40;41.10;;;;;;5074526;28;20032;-62
2022/10/21 11:54:08;;;;;;;5.18;4.68;;;26.40;43.10;;;;;;5073592;28;20111;-64
2022/10/21 11:57:05;;;;;;;4.47;4.07;;;26.20;43.00;;;;;;5056094;28;20550;-62
2022/10/21 11:59:46;;;;;;;5.47;5.03;;;26.20;45.20;;;;;;5074895;28;20024;-65
2022/10/21 12:02:24;;;;;;;5.35;4.95;;;26.30;42.70;;;;;;5074484;28;20025;-62
2022/10/21 12:05:14;;;;;;;5.28;4.78;;;26.20;44.70;;;;;;5071660;28;20487;-63
2022/10/21 12:07:50;;;;;;;4.90;4.50;;;26.10;43.30;;;;;;5071847;28;20028;-66
2022/10/21 12:10:41;;;;;;;5.10;4.60;;;26.10;45.60;;;;;;5072547;28;20035;-63
2022/10/21 12:13:16;;;;;;;4.55;4.25;;;26.20;42.80;;;;;;5071549;28;20508;-64
2022/10/21 12:16:09;;;;;;;5.47;5.03;;;26.20;43.00;;;;;;5071047;28;20020;-62
2022/10/21 12:18:49;;;;;;;;;;;26.30;43.40;;;;;;5068422;28;20573;-64
2022/10/21 12:21:18;;;;;;;7.65;6.95;;;26.30;43.70;;;;;;5070525;28;20409;-62
2022/10/21 12:23:48;;;;;;;9.45;8.50;;;26.30;43.40;;;;;;5069368;28;20040;-64
2022/10/21 12:26:22;;;;;;;7.72;6.93;;;26.20;43.10;;;;;;5069246;28;20087;-64
2022/10/21 12:28:56;;;;;;;9.45;8.15;;;26.10;43.30;;;;;;5069614;28;20048;-62
2022/10/21 12:32:04;;;;;;;7.93;7.22;;;26.00;44.00;;;;;;5069854;28;20028;-64
2022/10/21 12:34:30;;;;;;;8.85;8.00;;;25.90;45.10;;;;;;5067546;28;20505;-65
2022/10/21 12:36:56;;;;;;;8.18;7.40;;;25.80;44.80;;;;;;5052361;28;20047;-61
2022/10/21 12:39:34;;;;;;;8.80;7.90;;;25.70;43.90;;;;;;5053617;28;20036;-62
2022/10/21 12:42:13;;;;;;;8.57;7.78;;;25.60;44.70;;;;;;5055683;28;20025;-61
2022/10/21 12:44:45;;;;;;;11.00;8.15;;;25.60;45.30;;;;;;5061702;28;20028;-63
2022/10/21 12:47:22;;;;;;;8.95;8.05;;;25.60;45.00;;;;;;5053051;28;20067;-63
2022/10/21 12:50:17;;;;;;;12.73;8.95;;;25.60;45.10;;;;;;5053969;28;20021;-63
2022/10/21 12:52:44;;;;;;;10.15;9.07;;;25.60;45.40;;;;;;5053120;28;20036;-62
2022/10/21 12:55:26;;;;;;;10.75;8.80;;;25.30;45.70;;;;;;5067056;28;20082;-62
2022/10/21 12:58:03;;;;;;;9.55;8.57;;;25.20;45.60;;;;;;5069800;28;20024;-62
2022/10/21 13:00:29;;;;;;;9.07;8.07;;;25.20;45.80;;;;;;5073991;28;20024;-61
2022/10/21 13:03:18;;;;;;;10.05;8.35;;;25.00;46.20;;;;;;5070528;28;20039;-61
2022/10/21 13:05:45;;;;;;;9.00;7.63;;;24.90;46.10;;;;;;5070908;28;20547;-63
2022/10/21 13:08:21;;;;;;;9.57;8.60;;;24.80;46.30;;;;;;5070171;28;20143;-64
2022/10/21 13:11:05;;;;;;;9.30;8.02;;;24.70;47.20;;;;;;5072047;28;20478;-62
2022/10/21 13:13:38;;;;;;;19.42;17.33;;;24.60;46.80;;;;;;5072529;28;20563;-65